Time,TemperatureF,DewpointF,PressureIn,WindDirection,WindDirectionDegrees,WindSpeedMPH,WindSpeedGustMPH,Humidity,HourlyPrecipIn,Conditions,Clouds,dailyrainin,SolarRadiationWatts/m^2,SoftwareType,DateUTC
2013-07-19 00:01:00,71.0,34.0,-100.00,NW,313,4.0,7.0,26,-99.99,,,0.00,0.000000,,2013-07-19 06:01:00,
2013-07-19 00:22:00,71.0,34.0,-100.00,NW,313,4.0,7.0,26,-99.99,,,0.00,0.000000,,2013-07-19 06:22:00,
2013-07-19 00:32:00,71.0,34.0,-100.00,NW,313,4.0,7.0,26,-99.99,,,0.00,0.000000,,2013-07-19 06:32:00,
2013-07-19 01:01:00,68.0,36.0,-100.00,NW,320,5.0,8.0,31,0.00,,,0.00,0.000000,,2013-07-19 07:01:00,
2013-07-19 01:12:00,68.0,36.0,-100.00,NW,320,5.0,8.0,31,0.00,,,0.00,0.000000,,2013-07-19 07:12:00,
2013-07-19 02:01:00,65.0,37.0,-100.00,ESE,107,2.0,6.0,36,-99.99,,,-99.99,0.000000,,2013-07-19 08:01:00,
2013-07-19 02:11:00,65.0,37.0,-100.00,ESE,107,2.0,6.0,36,-99.99,,,-99.99,0.000000,,2013-07-19 08:11:00,
2013-07-19 02:21:00,65.0,37.0,-100.00,ESE,107,2.0,6.0,36,-99.99,,,-99.99,0.000000,,2013-07-19 08:21:00,
2013-07-19 02:32:00,65.0,37.0,-100.00,ESE,107,2.0,6.0,36,-99.99,,,-99.99,0.000000,,2013-07-19 08:32:00,
2013-07-19 03:02:00,62.0,39.0,-100.00,East,97,2.0,4.0,42,0.00,,,-99.99,0.000000,,2013-07-19 09:02:00,
2013-07-19 03:11:00,62.0,39.0,-100.00,East,97,2.0,4.0,42,0.00,,,-99.99,0.000000,,2013-07-19 09:11:00,
2013-07-19 03:22:00,62.0,39.0,-100.00,East,97,2.0,4.0,42,0.00,,,-99.99,0.000000,,2013-07-19 09:22:00,
2013-07-19 03:32:00,62.0,39.0,-100.00,East,97,2.0,4.0,42,0.00,,,-99.99,0.000000,,2013-07-19 09:32:00,
2013-07-19 04:01:00,61.0,40.0,-100.00,ENE,77,1.0,5.0,45,0.00,,,0.00,0.000000,,2013-07-19 10:01:00,
2013-07-19 04:11:00,61.0,40.0,-100.00,ENE,77,1.0,5.0,45,0.00,,,0.00,0.000000,,2013-07-19 10:11:00,
2013-07-19 05:02:00,58.0,39.0,-100.00,East,84,5.0,6.0,49,0.00,,,0.00,0.000000,,2013-07-19 11:02:00,
2013-07-19 05:12:00,58.0,39.0,-100.00,East,84,5.0,6.0,49,0.00,,,0.00,0.000000,,2013-07-19 11:12:00,
2013-07-19 05:22:00,58.0,39.0,-100.00,East,84,5.0,6.0,49,0.00,,,0.00,0.000000,,2013-07-19 11:22:00,
2013-07-19 06:01:00,56.0,39.0,-100.00,NE,51,1.0,5.0,53,0.00,,,-99.99,0.000000,,2013-07-19 12:01:00,
2013-07-19 06:12:00,56.0,39.0,-100.00,NE,51,1.0,5.0,53,0.00,,,-99.99,0.000000,,2013-07-19 12:12:00,
2013-07-19 06:22:00,56.0,39.0,-100.00,NE,51,1.0,5.0,53,0.00,,,-99.99,0.000000,,2013-07-19 12:22:00,
2013-07-19 06:32:00,56.0,39.0,-100.00,NE,51,1.0,5.0,53,0.00,,,-99.99,0.000000,,2013-07-19 12:32:00,
2013-07-19 07:02:00,56.0,40.0,-100.00,East,84,4.0,5.0,55,0.00,,,0.00,4.000000,,2013-07-19 13:02:00,
2013-07-19 07:11:00,56.0,40.0,-100.00,East,84,4.0,5.0,55,0.00,,,0.00,4.000000,,2013-07-19 13:11:00,
2013-07-19 07:32:00,56.0,40.0,-100.00,East,84,4.0,5.0,55,0.00,,,0.00,4.000000,,2013-07-19 13:32:00,
2013-07-19 08:22:00,58.0,42.0,-100.00,East,93,2.0,6.0,55,0.00,,,-99.99,73.000000,,2013-07-19 14:22:00,
2013-07-19 08:33:00,58.0,42.0,-100.00,East,93,2.0,6.0,55,0.00,,,-99.99,73.000000,,2013-07-19 14:33:00,
2013-07-19 09:11:00,61.0,44.0,-100.00,East,96,3.0,5.0,53,-99.99,,,0.00,245.000000,,2013-07-19 15:11:00,
2013-07-19 10:01:00,66.0,43.0,-100.00,SW,231,0.0,5.0,44,0.00,,,0.00,424.000000,,2013-07-19 16:01:00,
2013-07-19 10:11:00,66.0,43.0,-100.00,SW,231,0.0,5.0,44,0.00,,,0.00,424.000000,,2013-07-19 16:11:00,
2013-07-19 10:22:00,66.0,43.0,-100.00,SW,231,0.0,5.0,44,0.00,,,0.00,424.000000,,2013-07-19 16:22:00,
2013-07-19 10:32:00,66.0,43.0,-100.00,SW,231,0.0,5.0,44,0.00,,,0.00,424.000000,,2013-07-19 16:32:00,
2013-07-19 11:02:00,71.0,45.0,-100.00,SW,214,2.0,5.0,39,0.00,,,0.00,597.000000,,2013-07-19 17:02:00,
2013-07-19 11:12:00,71.0,45.0,-100.00,SW,214,2.0,5.0,39,0.00,,,0.00,597.000000,,2013-07-19 17:12:00,
2013-07-19 11:22:00,71.0,45.0,-100.00,SW,214,2.0,5.0,39,0.00,,,0.00,597.000000,,2013-07-19 17:22:00,
2013-07-19 11:32:00,71.0,45.0,-100.00,SW,214,2.0,5.0,39,0.00,,,0.00,597.000000,,2013-07-19 17:32:00,
2013-07-19 12:11:00,78.0,43.0,-100.00,SW,225,2.0,5.0,29,0.00,,,0.00,747.000000,,2013-07-19 18:11:00,
2013-07-19 12:21:00,78.0,43.0,-100.00,SW,225,2.0,5.0,29,0.00,,,0.00,747.000000,,2013-07-19 18:21:00,
2013-07-19 12:32:00,78.0,43.0,-100.00,SW,225,2.0,5.0,29,0.00,,,0.00,747.000000,,2013-07-19 18:32:00,
2013-07-19 13:11:00,84.0,43.0,-100.00,South,171,2.0,7.0,24,0.00,,,0.00,858.000000,,2013-07-19 19:11:00,
2013-07-19 13:21:00,84.0,43.0,-100.00,South,171,2.0,7.0,24,0.00,,,0.00,858.000000,,2013-07-19 19:21:00,
2013-07-19 13:32:00,84.0,43.0,-100.00,South,171,2.0,7.0,24,0.00,,,0.00,858.000000,,2013-07-19 19:32:00,
2013-07-19 14:11:00,88.0,38.0,-100.00,SE,141,4.0,7.0,17,0.00,,,0.00,923.000000,,2013-07-19 20:11:00,
2013-07-19 14:22:00,88.0,38.0,-100.00,SE,141,4.0,7.0,17,0.00,,,0.00,923.000000,,2013-07-19 20:22:00,
2013-07-19 14:33:00,88.0,38.0,-100.00,SE,141,4.0,7.0,17,0.00,,,0.00,923.000000,,2013-07-19 20:33:00,
2013-07-19 15:01:00,92.0,30.0,-100.00,WNW,303,5.0,22.0,11,0.00,,,0.00,938.000000,,2013-07-19 21:01:00,
2013-07-19 15:11:00,92.0,30.0,-100.00,WNW,303,5.0,22.0,11,0.00,,,0.00,938.000000,,2013-07-19 21:11:00,
2013-07-19 15:21:00,92.0,30.0,-100.00,WNW,303,5.0,22.0,11,0.00,,,0.00,938.000000,,2013-07-19 21:21:00,
2013-07-19 15:32:00,92.0,30.0,-100.00,WNW,303,5.0,22.0,11,0.00,,,0.00,938.000000,,2013-07-19 21:32:00,
2013-07-19 16:01:00,91.0,31.0,-100.00,WNW,286,8.0,20.0,12,0.00,,,0.00,907.000000,,2013-07-19 22:01:00,
2013-07-19 16:11:00,91.0,31.0,-100.00,WNW,286,8.0,20.0,12,0.00,,,0.00,907.000000,,2013-07-19 22:11:00,
2013-07-19 16:21:00,91.0,31.0,-100.00,WNW,286,8.0,20.0,12,0.00,,,0.00,907.000000,,2013-07-19 22:21:00,
2013-07-19 16:32:00,91.0,31.0,-100.00,WNW,286,8.0,20.0,12,0.00,,,0.00,907.000000,,2013-07-19 22:32:00,
2013-07-19 17:11:00,91.0,33.0,-100.00,WSW,244,7.0,14.0,13,0.00,,,0.00,767.000000,,2013-07-19 23:11:00,
2013-07-19 17:21:00,91.0,33.0,-100.00,WSW,244,7.0,14.0,13,0.00,,,0.00,767.000000,,2013-07-19 23:21:00,
2013-07-19 17:32:00,91.0,33.0,-100.00,WSW,244,7.0,14.0,13,0.00,,,0.00,767.000000,,2013-07-19 23:32:00,
2013-07-19 18:01:00,92.0,36.0,-100.00,NNW,338,4.0,15.0,14,0.00,,,0.00,699.000000,,2013-07-20 00:01:00,
2013-07-19 18:11:00,92.0,36.0,-100.00,NNW,338,4.0,15.0,14,0.00,,,0.00,699.000000,,2013-07-20 00:11:00,
2013-07-19 18:21:00,92.0,36.0,-100.00,NNW,338,4.0,15.0,14,0.00,,,0.00,699.000000,,2013-07-20 00:21:00,
2013-07-19 18:32:00,92.0,36.0,-100.00,NNW,338,4.0,15.0,14,0.00,,,0.00,699.000000,,2013-07-20 00:32:00,
2013-07-19 19:01:00,91.0,31.0,-100.00,WNW,298,8.0,19.0,12,0.00,,,0.00,532.000000,,2013-07-20 01:01:00,
2013-07-19 19:11:00,91.0,31.0,-100.00,WNW,298,8.0,19.0,12,0.00,,,0.00,532.000000,,2013-07-20 01:11:00,
2013-07-19 19:22:00,91.0,31.0,-100.00,WNW,298,8.0,19.0,12,0.00,,,0.00,532.000000,,2013-07-20 01:22:00,
2013-07-19 19:32:00,91.0,31.0,-100.00,WNW,298,8.0,19.0,12,0.00,,,0.00,532.000000,,2013-07-20 01:32:00,
2013-07-19 20:01:00,89.0,28.0,-100.00,West,268,9.0,17.0,11,0.00,,,0.00,361.000000,,2013-07-20 02:01:00,
2013-07-19 20:11:00,89.0,28.0,-100.00,West,268,9.0,17.0,11,0.00,,,0.00,361.000000,,2013-07-20 02:11:00,
2013-07-19 20:22:00,89.0,28.0,-100.00,West,268,9.0,17.0,11,0.00,,,0.00,361.000000,,2013-07-20 02:22:00,
2013-07-19 20:32:00,89.0,28.0,-100.00,West,268,9.0,17.0,11,0.00,,,0.00,361.000000,,2013-07-20 02:32:00,
2013-07-19 21:02:00,85.0,30.0,-100.00,WNW,299,5.0,13.0,14,0.00,,,0.00,177.000000,,2013-07-20 03:02:00,
2013-07-19 21:11:00,85.0,30.0,-100.00,WNW,299,5.0,13.0,14,0.00,,,0.00,177.000000,,2013-07-20 03:11:00,
2013-07-19 21:22:00,85.0,30.0,-100.00,WNW,299,5.0,13.0,14,0.00,,,0.00,177.000000,,2013-07-20 03:22:00,
2013-07-19 21:32:00,85.0,30.0,-100.00,WNW,299,5.0,13.0,14,0.00,,,0.00,177.000000,,2013-07-20 03:32:00,
2013-07-19 22:01:00,77.0,34.0,-100.00,West,278,5.0,11.0,21,0.00,,,0.00,12.000000,,2013-07-20 04:01:00,
2013-07-19 22:11:00,77.0,34.0,-100.00,West,278,5.0,11.0,21,0.00,,,0.00,12.000000,,2013-07-20 04:11:00,
2013-07-19 22:22:00,77.0,34.0,-100.00,West,278,5.0,11.0,21,0.00,,,0.00,12.000000,,2013-07-20 04:22:00,
2013-07-19 22:33:00,77.0,34.0,-100.00,West,278,5.0,11.0,21,0.00,,,0.00,12.000000,,2013-07-20 04:33:00,
2013-07-19 23:02:00,76.0,37.0,-100.00,NW,322,3.0,6.0,24,0.00,,,0.00,0.000000,,2013-07-20 05:02:00,
2013-07-19 23:11:00,76.0,37.0,-100.00,NW,322,3.0,6.0,24,0.00,,,0.00,0.000000,,2013-07-20 05:11:00,
2013-07-19 23:22:00,76.0,37.0,-100.00,NW,322,3.0,6.0,24,0.00,,,0.00,0.000000,,2013-07-20 05:22:00,
2013-07-19 23:32:00,76.0,37.0,-100.00,NW,322,3.0,6.0,24,0.00,,,0.00,0.000000,,2013-07-20 05:32:00,